Latest Weather Observations for Coober Pedy Airport

IDS60801

Issued at 6:21 pm CST Wednesday 19 June 2019 (issued every 10 minutes, with the page automatically refreshed every 10 minutes)

About weather observations | Map of weather stations | Latest weather observations for SA | Other Formats
Station Details ID: 016090 Name: COOBER PEDY AIRPORT Lat: -29.03 Lon: 134.72 Height: 225.0 m
Data from the previous 72 hours. | See also: Recent months at Coober Pedy Airport
Date/Time
CST
Temp
°C
App
Temp
°C
Dew
Point
°C
Rel
Hum
%
Delta-T
°C
Wind Press
QNH
hPa
Press
MSL
hPa
Rain since
9am
mm
Dir  Spd
km/h
Gust
km/h
Spd
kts
Gust
kts
19/06:00pm 12.6 - - - - SE 7 9 4 5 1025.6 1025.7 0.0
19/05:30pm 13.5 - - - - ESE 6 9 3 5 1025.4 1025.5 0.0
19/05:00pm 13.8 - - - - SE 6 11 3 6 1025.3 1025.4 0.0
19/04:30pm 14.5 - - - - E 2 7 1 4 1025.2 1025.3 0.0
19/04:00pm 14.2 - - - - SE 9 17 5 9 1025.1 1025.2 0.0
19/03:30pm 14.7 - - - - NNE 7 11 4 6 1025.0 1025.0 0.0
19/03:00pm 14.4 - - - - SE 11 20 6 11 1025.1 1025.2 0.0
19/02:30pm 14.8 - - - - E 6 11 3 6 1025.2 1025.3 0.0
19/02:00pm 13.7 - - - - S 6 11 3 6 1025.5 1025.6 0.0
19/01:30pm 13.4 - - - - SE 9 13 5 7 1025.9 1026.0 0.0
19/01:00pm 13.9 - - - - E 9 13 5 7 1026.4 1026.5 0.0
19/12:30pm 13.5 - - - - NNE 9 15 5 8 1027.0 1027.0 0.0
19/12:00pm 13.2 - - - - SSE 9 17 5 9 1027.6 1027.6 0.0
19/11:30am 12.8 - - - - NE 11 17 6 9 1028.2 1028.2 0.0
19/11:00am 12.4 - - - - NE 13 20 7 11 1028.6 1028.6 0.0
19/10:30am 12.6 - - - - ESE 7 11 4 6 1028.9 1029.0 0.0
19/10:00am 11.9 - - - - ESE 7 11 4 6 1028.9 1029.0 0.0
19/09:30am 11.2 - - - - SE 7 11 4 6 1028.7 1028.7 0.0
19/09:00am 9.6 - - - - SE 7 11 4 6 1028.3 1028.3 0.0
19/08:30am 7.3 - - - - SE 11 13 6 7 1027.9 1027.9 0.0
19/08:00am 6.3 - - - - SE 11 13 6 7 1027.6 1027.6 0.0
19/07:30am 5.9 - - - - SE 11 13 6 7 1027.3 1027.3 0.0
19/07:00am 5.3 - - - - SE 13 15 7 8 1026.9 1026.9 0.0
19/06:30am 5.3 - - - - SSE 15 17 8 9 1026.5 1026.6 0.0
19/06:00am 5.9 - - - - SE 13 15 7 8 1026.3 1026.4 0.0
19/05:30am 5.7 - - - - SE 13 17 7 9 1026.1 1026.2 0.0
19/05:00am 5.8 - - - - SE 13 15 7 8 1026.0 1026.1 0.0
19/04:30am 6.9 - - - - SE 15 17 8 9 1026.0 1026.1 0.0
19/04:00am 7.6 - - - - SE 17 20 9 11 1026.1 1026.2 0.0
19/03:30am 7.1 - - - - SE 15 19 8 10 1026.2 1026.3 0.0
19/03:00am 6.3 - - - - SE 13 15 7 8 1026.3 1026.4 0.0
19/02:30am 5.7 - - - - ESE 11 15 6 8 1026.4 1026.5 0.0
19/02:00am 6.1 - - - - ESE 15 17 8 9 1026.3 1026.4 0.0
19/01:30am 6.4 - - - - SE 15 17 8 9 1026.4 1026.5 0.0
19/01:00am 6.5 - - - - SE 15 17 8 9 1026.4 1026.5 0.0
19/12:30am 6.6 - - - - SE 13 15 7 8 1026.8 1026.8 0.0
19/12:00am 7.0 - - - - SE 13 15 7 8 1026.8 1026.8 0.0
 
Date/Time
CST
Temp
°C
App
Temp
°C
Dew
Point
°C
Rel
Hum
%
Delta-T
°C
Wind Press
QNH
hPa
Press
MSL
hPa
Rain since
9am
mm
Dir  Spd
km/h
Gust
km/h
Spd
kts
Gust
kts
18/11:30pm 7.3 - - - - SE 17 17 9 9 1026.9 1026.9 0.0
18/11:00pm 7.4 - - - - SE 15 15 8 8 1026.9 1026.9 0.0
18/10:30pm 7.3 - - - - SE 13 13 7 7 1026.9 1026.9 0.0
18/10:00pm 7.9 - - - - SE 11 11 6 6 1026.8 1026.8 0.0
18/09:30pm 8.9 - - - - SE 11 13 6 7 1026.5 1026.6 0.0
18/09:00pm 9.2 - - - - SE 11 13 6 7 1026.3 1026.4 0.0
18/08:30pm 10.0 - - - - SSE 13 17 7 9 1026.1 1026.2 0.0
18/08:00pm 10.5 - - - - SSE 15 17 8 9 1026.1 1026.2 0.0
18/07:30pm 11.1 - - - - SSE 13 13 7 7 1026.3 1026.4 0.0
18/07:00pm 11.4 - - - - S 13 13 7 7 1026.1 1026.2 0.0
18/06:30pm 12.5 - - - - SSW 13 15 7 8 1025.8 1025.9 0.0
18/06:00pm 13.7 - - - - S 20 26 11 14 1025.6 1025.7 0.0
18/05:30pm 14.3 - - - - SSW 19 24 10 13 1025.4 1025.5 0.0
18/05:00pm 15.4 - - - - SSW 15 22 8 12 1025.3 1025.4 0.0
18/04:30pm 15.1 - - - - SSW 17 24 9 13 1025.1 1025.2 0.0
18/04:00pm 15.3 - - - - SSW 19 30 10 16 1025.2 1025.3 0.0
18/03:30pm 15.5 - - - - SSW 13 24 7 13 1025.2 1025.3 0.0
18/03:00pm 15.5 - - - - SSW 15 26 8 14 1025.3 1025.4 0.0
18/02:30pm 15.7 - - - - WSW 13 20 7 11 1025.4 1025.5 0.0
18/02:00pm 15.0 - - - - SSW 20 28 11 15 1025.6 1025.7 0.0
18/01:30pm 15.7 - - - - SSW 17 26 9 14 1026.0 1026.1 0.0
18/01:00pm 14.9 - - - - SSW 17 32 9 17 1026.6 1026.7 0.0
18/12:30pm 14.7 - - - - S 17 24 9 13 1027.2 1027.2 0.0
18/12:00pm 14.2 - - - - S 19 28 10 15 1027.6 1027.6 0.0
18/11:30am 14.1 - - - - S 22 30 12 16 1027.7 1027.7 0.0
18/11:00am 13.8 - - - - S 24 30 13 16 1027.9 1027.9 0.0
18/10:30am 12.8 - - - - S 22 28 12 15 1028.1 1028.1 0.0
18/10:29am 12.6 - - - - S 24 30 13 16 1028.1 1028.1 0.0
18/10:00am 11.9 - - - - S 24 30 13 16 1028.0 1028.0 0.0
18/09:30am 11.3 - - - - S 19 26 10 14 1027.9 1027.9 0.0
18/09:00am 10.5 - - - - SSW 20 24 11 13 1027.8 1027.8 0.0
18/08:30am 10.0 - - - - SSW 19 22 10 12 1027.3 1027.3 0.0
18/08:00am 8.3 - - - - SW 11 15 6 8 1027.0 1027.0 0.0
18/07:53am 8.1 - - - - SW 13 15 7 8 1026.9 1026.9 0.0
18/07:30am 8.8 - - - - S 15 19 8 10 1026.4 1026.5 0.0
18/07:00am 8.6 - - - - S 17 19 9 10 1026.0 1026.1 0.0
18/06:30am 8.5 - - - - SSW 13 13 7 7 1025.7 1025.8 0.0
18/06:00am 8.8 - - - - SSW 15 17 8 9 1025.4 1025.5 0.0
18/05:30am 8.9 - - - - SSW 20 24 11 13 1025.1 1025.2 0.0
18/05:00am 7.4 - - - - SW 20 24 11 13 1024.7 1024.7 0.0
18/04:30am 7.2 - - - - SW 19 20 10 11 1024.7 1024.7 0.0
18/04:00am 7.4 - - - - SW 17 19 9 10 1024.5 1024.5 0.0
18/03:30am 7.9 - - - - SW 17 20 9 11 1024.6 1024.6 0.0
18/03:00am 8.2 - - - - SW 17 20 9 11 1024.5 1024.5 0.0
18/02:30am 7.0 - - - - WSW 15 17 8 9 1024.5 1024.5 0.0
18/02:00am 6.5 - - - - W 17 19 9 10 1024.3 1024.3 0.0
18/01:30am 6.8 - - - - WNW 15 17 8 9 1024.0 1024.0 0.0
18/01:00am 7.6 - - - - WNW 15 15 8 8 1024.0 1024.0 0.0
18/12:30am 7.9 - - - - WNW 15 15 8 8 1024.1 1024.1 0.0
18/12:00am 8.3 - - - - W 13 15 7 8 1024.2 1024.2 0.0
 
Date/Time
CST
Temp
°C
App
Temp
°C
Dew
Point
°C
Rel
Hum
%
Delta-T
°C
Wind Press
QNH
hPa
Press
MSL
hPa
Rain since
9am
mm
Dir  Spd
km/h
Gust
km/h
Spd
kts
Gust
kts
17/11:30pm 9.1 - - - - W 11 13 6 7 1024.3 1024.3 0.0
17/11:00pm 9.7 - - - - W 11 11 6 6 1024.4 1024.4 0.0
17/10:30pm 10.6 - - - - W 7 9 4 5 1024.5 1024.5 0.0
17/10:00pm 10.8 - - - - W 7 7 4 4 1024.5 1024.5 0.0
17/09:30pm 11.5 - - - - WSW 9 9 5 5 1024.5 1024.5 0.0
17/09:00pm 12.1 - - - - SW 9 9 5 5 1024.5 1024.5 0.0
17/08:30pm 11.9 - - - - WSW 7 9 4 5 1024.5 1024.5 0.0
17/08:00pm 12.6 - - - - SW 7 9 4 5 1024.3 1024.3 0.0
17/07:30pm 13.3 - - - - SW 11 11 6 6 1024.1 1024.1 0.0
17/07:00pm 14.1 - - - - SW 11 11 6 6 1024.1 1024.1 0.0
17/06:30pm 14.8 - - - - SW 11 15 6 8 1023.8 1023.8 0.0
17/06:00pm 15.3 - - - - SSW 17 - 9 - - 1023.5 -
17/05:30pm 16.0 - - - - SW 19 24 10 13 1023.4 1023.4 0.0
17/05:00pm 16.2 - - - - WSW 20 24 11 13 1023.3 1023.3 0.0
17/04:30pm 16.8 - - - - WSW 20 28 11 15 1023.2 1023.2 0.0
17/04:00pm 16.7 - - - - WSW 26 33 14 18 1023.1 1023.1 0.0
17/03:30pm 17.2 - - - - WSW 26 32 14 17 1023.2 1023.2 0.0
17/03:00pm 16.9 - - - - WSW 24 32 13 17 1023.2 1023.2 0.0
17/02:30pm 17.3 - - - - W 22 35 12 19 1023.3 1023.3 0.0
17/02:00pm 17.3 - - - - W 22 30 12 16 1023.7 1023.7 0.0
17/01:30pm 16.9 - - - - WSW 24 35 13 19 1024.0 1024.0 0.0
17/01:00pm 16.4 - - - - W 24 33 13 18 1024.5 1024.5 0.0
17/12:30pm 16.4 - - - - W 22 30 12 16 1024.8 1024.8 0.0
17/12:00pm 16.0 - - - - W 11 19 6 10 1025.0 1025.0 0.0
17/11:30am 16.0 - - - - W 9 17 5 9 1025.4 1025.5 0.0
17/11:00am 15.6 - - - - N 11 13 6 7 1025.8 1025.9 0.0
17/10:30am 14.8 - - - - NNW 15 19 8 10 1025.8 1025.9 0.0
17/10:00am 13.4 - - - - N 15 19 8 10 1025.8 1025.9 0.0
17/09:30am 12.6 - - - - N 15 17 8 9 1025.6 1025.7 0.0
17/09:00am 11.2 - - - - N 11 15 6 8 1025.3 1025.4 0.0
17/08:30am 10.4 - - - - N 11 13 6 7 1025.2 1025.3 0.0
17/08:00am 5.9 - - - - NNE 11 13 6 7 1024.9 1024.9 0.0
17/07:30am 4.9 - - - - N 7 9 4 5 1024.8 1024.8 0.0
17/07:00am 4.8 - - - - CALM 0 0 0 0 1024.7 1024.7 0.0
17/06:30am 4.9 - - - - CALM 0 0 0 0 1024.4 1024.4 0.0
17/06:00am 5.8 - - - - CALM 0 0 0 0 1024.3 1024.3 0.0
17/05:30am 4.8 - - - - CALM 0 0 0 0 1024.1 1024.1 0.0
17/05:00am 6.9 - - - - SSW 2 9 1 5 1023.9 1023.9 0.0
17/04:30am 7.2 - - - - CALM 0 0 0 0 1023.7 1023.7 0.0
17/04:00am 7.2 - - - - CALM 0 0 0 0 1023.8 1023.8 0.0
17/03:30am 7.5 - - - - SW 6 11 3 6 1023.9 1023.9 0.0
17/03:00am 7.3 - - - - CALM 0 0 0 0 1024.0 1024.0 0.0
17/02:30am 7.2 - - - - SW 9 11 5 6 1024.1 1024.1 0.0
17/02:00am 8.8 - - - - SW 6 11 3 6 1024.1 1024.1 0.0
17/01:30am 7.4 - - - - WSW 6 11 3 6 1024.2 1024.2 0.0
17/01:00am 8.8 - - - - SW 6 11 3 6 1024.2 1024.2 0.0
17/12:30am 8.4 - - - - SW 6 9 3 5 1024.4 1024.4 0.0
17/12:00am 8.4 - - - - SW 6 9 3 5 1024.6 1024.6 0.0
 
Date/Time
CST
Temp
°C
App
Temp
°C
Dew
Point
°C
Rel
Hum
%
Delta-T
°C
Wind Press
QNH
hPa
Press
MSL
hPa
Rain since
9am
mm
Dir  Spd
km/h
Gust
km/h
Spd
kts
Gust
kts
16/11:30pm 8.5 - - - - WSW 7 9 4 5 1024.6 1024.6 0.0
16/11:00pm 8.6 - - - - SW 6 9 3 5 1024.6 1024.6 0.0
16/10:30pm 9.1 - - - - SW 2 7 1 4 1024.6 1024.6 0.0
16/10:00pm 9.7 - - - - SSE 6 7 3 4 1024.5 1024.5 0.0
16/09:30pm 11.1 - - - - SSE 7 9 4 5 1024.4 1024.4 0.0
16/09:00pm 12.4 - - - - S 13 13 7 7 1024.2 1024.2 0.0
16/08:30pm 12.3 - - - - S 9 11 5 6 1024.1 1024.1 0.0
16/08:00pm 12.3 - - - - S 9 11 5 6 1023.9 1023.9 0.0
16/07:30pm 12.8 - - - - S 11 11 6 6 1023.9 1023.9 0.0
16/07:00pm 12.9 - - - - SSW 11 13 6 7 1023.6 1023.6 0.0
16/06:30pm 14.0 - - - - SSW 15 17 8 9 1023.1 1023.1 0.0

Other formats

Comma delimited format used in spreadsheet applications
http://www.bom.gov.au/fwo/IDS60801/IDS60801.95458.axf

JavaScript Object Notation format (JSON) in row-major order
http://www.bom.gov.au/fwo/IDS60801/IDS60801.95458.json

Data quality

Most of these data are generated automatically and are frequently updated. Quality checks on data are not normally performed. It is possible for incorrect values to appear. Refer to information at About Latest Weather Observations and please check the disclaimer before using these data.